Time;durP1;ratioP1;P1;durP2;ratioP2;P2;SDS_P1;SDS_P2;PMS_P1;PMS_P2;Temp;Humidity;BMP_temperature;BMP_pressure;BME280_temperature;BME280_humidity;BME280_pressure;Samples;Min_cycle;Max_cycle;Signal;HPM_P1;HPM_P2
2021/05/20 00:02:38;;;;;;;3.45;2.90;;;;;;;9.37;100.00;100896.28;5019159;28;20568;-68
2021/05/20 00:05:21;;;;;;;3.45;2.55;;;;;;;9.40;100.00;100897.84;5033342;28;20099;-68
2021/05/20 00:08:05;;;;;;;4.03;2.90;;;;;;;9.45;100.00;100893.84;5034259;28;20044;-68
2021/05/20 00:10:49;;;;;;;5.25;3.08;;;;;;;9.51;100.00;100889.84;5033277;28;20048;-68
2021/05/20 00:13:33;;;;;;;4.55;2.92;;;;;;;9.52;100.00;100886.22;5018863;28;20049;-68
2021/05/20 00:16:17;;;;;;;5.28;3.00;;;;;;;9.56;100.00;100890.34;5033332;28;20052;-68
2021/05/20 00:19:01;;;;;;;6.00;3.00;;;;;;;9.57;100.00;100892.03;5032907;28;20099;-68
2021/05/20 00:21:45;;;;;;;5.05;3.30;;;;;;;9.54;100.00;100893.13;5032747;28;20047;-68
2021/05/20 00:24:28;;;;;;;5.22;3.00;;;;;;;9.54;100.00;100886.94;5019032;28;20415;-68
2021/05/20 00:27:12;;;;;;;5.35;2.92;;;;;;;9.53;100.00;100886.13;5033153;28;20095;-68
2021/05/20 00:29:56;;;;;;;6.47;2.80;;;;;;;9.49;100.00;100887.31;5033967;28;20140;-68
2021/05/20 00:32:40;;;;;;;6.28;3.50;;;;;;;9.47;100.00;100888.41;5032729;28;20060;-66
2021/05/20 00:35:24;;;;;;;4.80;3.10;;;;;;;9.42;100.00;100891.44;5032658;28;20629;-68
2021/05/20 00:38:11;;;;;;;5.68;3.00;;;;;;;9.40;100.00;100884.53;5018843;28;20541;-68
2021/05/20 00:41:02;;;;;;;3.83;2.85;;;;;;;9.37;100.00;100884.78;5018748;28;20410;-68
2021/05/20 00:43:46;;;;;;;4.47;3.13;;;;;;;9.33;100.00;100893.97;5018420;28;20485;-68
2021/05/20 00:46:30;;;;;;;7.65;3.63;;;;;;;9.30;100.00;100886.25;5032649;28;20044;-68
2021/05/20 00:49:14;;;;;;;6.82;3.83;;;;;;;9.23;100.00;100893.00;5033889;28;20224;-68
2021/05/20 00:51:58;;;;;;;5.35;3.60;;;;;;;9.19;100.00;100886.25;5033270;28;20180;-68
2021/05/20 00:54:42;;;;;;;5.65;3.50;;;;;;;9.16;100.00;100897.97;5032578;28;20052;-68
2021/05/20 00:57:26;;;;;;;4.43;3.53;;;;;;;9.14;100.00;100896.38;5032566;28;20136;-68
2021/05/20 01:00:12;;;;;;;4.60;3.63;;;;;;;9.11;100.00;100904.63;5018094;28;20076;-68
2021/05/20 01:02:56;;;;;;;8.05;3.60;;;;;;;9.11;100.00;100904.63;5018489;28;20049;-68
2021/05/20 01:05:40;;;;;;;6.32;3.03;;;;;;;9.07;100.00;100901.34;5018451;28;20124;-68
2021/05/20 01:08:27;;;;;;;5.13;3.35;;;;;;;9.13;100.00;100905.31;5033171;28;20144;-68
2021/05/20 01:11:11;;;;;;;7.20;3.60;;;;;;;9.16;100.00;100903.28;5032392;28;20124;-68
2021/05/20 01:13:55;;;;;;;5.43;3.50;;;;;;;9.18;100.00;100903.19;5032347;28;20179;-68
2021/05/20 01:16:38;;;;;;;6.70;3.65;;;;;;;9.22;100.00;100913.47;5032353;28;20111;-68
2021/05/20 01:19:22;;;;;;;4.38;3.42;;;;;;;9.25;100.00;100915.00;5032299;28;20080;-68
2021/05/20 01:22:07;;;;;;;4.07;3.17;;;;;;;9.31;100.00;100914.53;5033499;28;20045;-68
2021/05/20 01:24:50;;;;;;;4.22;3.30;;;;;;;9.34;100.00;100911.63;5018323;28;20052;-68
2021/05/20 01:27:35;;;;;;;3.97;3.20;;;;;;;9.34;100.00;100911.63;5032233;28;20131;-68
2021/05/20 01:30:19;;;;;;;3.97;3.05;;;;;;;9.40;100.00;100916.47;5031878;28;20084;-68
2021/05/20 01:33:04;;;;;;;6.63;3.55;;;;;;;9.42;100.00;100919.84;5032122;28;20090;-68
2021/05/20 01:35:48;;;;;;;4.05;3.22;;;;;;;9.45;100.00;100919.59;5032210;28;20059;-68
2021/05/20 01:41:21;;;;;;;4.10;3.63;;;;;;;9.44;100.00;100917.91;5033108;28;20413;-68
2021/05/20 01:44:05;;;;;;;5.47;3.30;;;;;;;9.45;100.00;100922.28;5032274;28;20098;-68
2021/05/20 01:46:49;;;;;;;5.53;3.15;;;;;;;9.46;100.00;100926.66;5032069;28;20472;-68
2021/05/20 01:49:33;;;;;;;4.57;2.97;;;;;;;9.47;100.00;100933.66;5018373;28;20111;-68
2021/05/20 01:52:18;;;;;;;9.20;3.15;;;;;;;9.49;100.00;100931.72;5017500;28;20473;-68
2021/05/20 01:55:02;;;;;;;7.28;3.00;;;;;;;9.50;100.00;100938.75;5032022;28;20095;-68
2021/05/20 01:57:46;;;;;;;5.32;2.85;;;;;;;9.54;100.00;100940.16;5032017;28;20080;-68
2021/05/20 02:00:30;;;;;;;7.25;2.70;;;;;;;9.56;100.00;100935.59;5031941;28;20541;-68
2021/05/20 02:03:14;;;;;;;3.58;2.65;;;;;;;9.56;100.00;100938.25;5032684;28;20096;-68
2021/05/20 02:06:01;;;;;;;3.53;2.65;;;;;;;9.57;100.00;100947.94;5031933;28;20060;-68
2021/05/20 02:08:45;;;;;;;4.47;2.50;;;;;;;9.59;100.00;100944.16;5031850;28;20044;-68
2021/05/20 02:11:29;;;;;;;4.47;2.35;;;;;;;9.52;100.00;100940.31;5032338;28;20060;-68
2021/05/20 02:14:13;;;;;;;4.95;2.63;;;;;;;9.52;100.00;100939.44;5035419;28;20048;-68
2021/05/20 02:16:57;;;;;;;4.65;2.55;;;;;;;9.58;100.00;100946.97;5035418;28;20047;-68
2021/05/20 02:19:40;;;;;;;5.15;2.75;;;;;;;9.56;100.00;100948.91;5036074;28;20122;-69
2021/05/20 02:22:24;;;;;;;2.67;2.25;;;;;;;9.59;100.00;100949.50;5035127;28;20136;-68
2021/05/20 02:25:09;;;;;;;2.65;2.28;;;;;;;9.55;100.00;100947.19;5036297;28;20225;-68
2021/05/20 02:27:53;;;;;;;6.25;2.72;;;;;;;9.58;100.00;100945.13;5035490;28;20044;-68
2021/05/20 02:30:37;;;;;;;3.53;2.78;;;;;;;9.61;100.00;100954.69;5020983;28;20044;-68
2021/05/20 02:33:20;;;;;;;4.38;2.28;;;;;;;9.60;100.00;100947.69;5035961;28;20045;-68
2021/05/20 02:36:05;;;;;;;3.95;2.55;;;;;;;9.66;100.00;100955.16;5035115;28;20048;-68
2021/05/20 02:38:49;;;;;;;3.42;2.55;;;;;;;9.63;100.00;100944.78;5020973;28;20132;-68
2021/05/20 02:41:33;;;;;;;4.60;2.50;;;;;;;9.62;100.00;100937.75;5035243;28;20095;-68
2021/05/20 02:44:16;;;;;;;2.85;2.30;;;;;;;9.61;100.00;100946.72;5035682;28;20472;-68
2021/05/20 02:47:00;;;;;;;2.90;2.30;;;;;;;9.61;100.00;100944.06;5034734;28;20444;-68
2021/05/20 02:49:44;;;;;;;3.67;2.58;;;;;;;9.60;100.00;100951.19;5034898;28;20414;-68
2021/05/20 02:52:29;;;;;;;5.90;2.20;;;;;;;9.60;100.00;100955.66;5029669;22;20060;-68
2021/05/20 02:55:15;;;;;;;3.28;2.47;;;;;;;9.64;100.00;100955.31;5048548;28;20060;-68
2021/05/20 02:58:01;;;;;;;4.57;2.47;;;;;;;9.61;100.00;100957.38;5034398;28;20180;-69
2021/05/20 03:00:46;;;;;;;5.57;2.92;;;;;;;9.62;100.00;100965.25;5034671;28;20052;-68
2021/05/20 03:03:31;;;;;;;3.70;2.78;;;;;;;9.58;100.00;100957.63;5034370;28;20410;-69
2021/05/20 03:06:15;;;;;;;3.00;2.47;;;;;;;9.58;100.00;100953.13;5034546;28;20398;-68
2021/05/20 03:08:59;;;;;;;7.43;2.60;;;;;;;9.57;100.00;100953.25;5034786;28;20133;-68
2021/05/20 03:11:42;;;;;;;6.15;2.75;;;;;;;9.51;100.00;100956.41;5035218;28;20413;-68
2021/05/20 03:14:27;;;;;;;4.45;2.83;;;;;;;9.50;100.00;100954.72;5034291;28;20064;-68
2021/05/20 03:17:12;;;;;;;6.55;3.70;;;;;;;9.50;100.00;100965.34;5020295;28;20136;-66
2021/05/20 03:19:56;;;;;;;5.25;2.90;;;;;;;9.51;100.00;100967.03;5034240;28;20086;-69
2021/05/20 03:22:40;;;;;;;5.32;2.85;;;;;;;9.53;100.00;100973.09;5034196;28;20095;-68
2021/05/20 03:25:24;;;;;;;3.30;2.90;;;;;;;9.53;100.00;100978.41;5034118;28;20556;-68
2021/05/20 03:28:08;;;;;;;3.83;2.78;;;;;;;9.48;100.00;100972.63;5033929;28;20047;-68
2021/05/20 03:30:52;;;;;;;3.95;2.72;;;;;;;9.53;100.00;100976.59;5033912;28;20056;-68
2021/05/20 03:33:40;;;;;;;3.38;2.85;;;;;;;9.52;100.00;100971.41;5033806;28;20051;-69
2021/05/20 03:36:24;;;;;;;5.63;3.38;;;;;;;9.53;100.00;100976.59;5034119;28;20537;-68
2021/05/20 03:39:08;;;;;;;4.28;2.90;;;;;;;9.55;100.00;100980.00;5033713;28;20048;-68
2021/05/20 03:41:52;;;;;;;4.47;2.70;;;;;;;9.56;100.00;100979.03;5034971;28;20067;-69
2021/05/20 03:44:35;;;;;;;5.40;2.90;;;;;;;9.60;100.00;100976.97;5034122;28;20048;-68
2021/05/20 03:47:19;;;;;;;3.55;2.70;;;;;;;9.64;100.00;100978.41;5019663;28;20084;-68
2021/05/20 03:50:03;;;;;;;3.17;2.75;;;;;;;9.63;100.00;100971.38;5034740;28;20052;-68
2021/05/20 03:52:48;;;;;;;4.90;3.17;;;;;;;9.66;100.00;100971.13;5033211;28;20120;-69
2021/05/20 03:55:31;;;;;;;3.17;2.63;;;;;;;9.65;100.00;100975.63;5034860;28;20409;-68
2021/05/20 03:58:15;;;;;;;4.55;3.00;;;;;;;9.68;100.00;100969.22;5034524;28;20052;-68
2021/05/20 04:00:59;;;;;;;5.32;3.00;;;;;;;9.68;100.00;100974.56;5019203;28;20099;-68
2021/05/20 04:03:43;;;;;;;4.90;2.85;;;;;;;9.64;100.00;100981.94;5033219;28;20530;-68
2021/05/20 04:06:27;;;;;;;3.97;3.05;;;;;;;9.63;100.00;100976.72;5034104;28;20076;-68
2021/05/20 04:09:11;;;;;;;3.22;2.55;;;;;;;9.60;100.00;100988.44;5033340;28;20056;-68
2021/05/20 04:11:55;;;;;;;3.88;3.00;;;;;;;9.62;100.00;100989.19;5033895;28;20044;-68
2021/05/20 04:14:39;;;;;;;7.10;3.10;;;;;;;9.62;100.00;100994.53;5033151;28;20095;-69
2021/05/20 04:17:23;;;;;;;6.00;3.25;;;;;;;9.66;100.00;100995.09;5033405;28;20574;-68
2021/05/20 04:20:07;;;;;;;4.53;3.75;;;;;;;9.66;100.00;100992.44;5033077;28;20060;-68
2021/05/20 04:22:51;;;;;;;4.80;3.67;;;;;;;9.66;100.00;100992.44;5032920;28;20102;-68
2021/05/20 04:25:35;;;;;;;6.75;3.47;;;;;;;9.72;100.00;100986.66;5033036;28;20056;-68
2021/05/20 04:28:19;;;;;;;5.63;3.67;;;;;;;9.75;100.00;100994.38;5033968;28;20044;-69
2021/05/20 04:31:03;;;;;;;5.07;3.40;;;;;;;9.79;100.00;100994.00;5032960;28;20136;-68
2021/05/20 04:33:47;;;;;;;8.05;3.90;;;;;;;9.83;100.00;100991.97;5032465;28;20095;-68
2021/05/20 04:36:31;;;;;;;5.80;3.38;;;;;;;9.88;100.00;101003.09;5018018;28;20110;-68
2021/05/20 04:39:14;;;;;;;5.40;3.30;;;;;;;9.91;100.00;101000.19;5032923;28;20052;-68
2021/05/20 04:41:58;;;;;;;3.78;3.10;;;;;;;10.02;100.00;101005.50;5032581;28;20091;-68
2021/05/20 04:44:43;;;;;;;5.72;2.88;;;;;;;10.11;100.00;101012.78;5033793;28;20552;-68
2021/05/20 04:47:27;;;;;;;4.43;3.25;;;;;;;10.14;100.00;101013.41;5032361;28;20056;-68
2021/05/20 04:50:11;;;;;;;6.18;3.03;;;;;;;10.05;100.00;101016.81;5018650;28;20460;-67
2021/05/20 04:52:56;;;;;;;4.43;3.17;;;;;;;10.09;100.00;101020.06;5032084;28;20045;-68
2021/05/20 04:55:40;;;;;;;4.10;3.03;;;;;;;10.15;100.00;101016.91;5018377;28;20057;-68
2021/05/20 04:58:24;;;;;;;4.47;3.45;;;;;;;10.23;100.00;101025.13;5018346;28;20529;-68
2021/05/20 05:01:07;;;;;;;3.80;3.38;;;;;;;10.26;100.00;101026.56;5032709;28;20559;-67
2021/05/20 05:03:51;;;;;;;3.78;3.40;;;;;;;10.24;100.00;101027.69;5032461;28;20048;-67
2021/05/20 05:06:36;;;;;;;5.18;3.40;;;;;;;10.26;100.00;101029.22;5032250;28;20095;-68
2021/05/20 05:09:20;;;;;;;6.88;3.35;;;;;;;10.27;100.00;101035.41;5032406;28;20052;-68
2021/05/20 05:12:04;;;;;;;4.82;3.47;;;;;;;10.33;100.00;101033.09;5033348;28;20478;-68
2021/05/20 05:14:48;;;;;;;6.40;3.13;;;;;;;10.32;100.00;101042.06;5032193;28;20048;-69
2021/05/20 05:17:32;;;;;;;3.83;2.83;;;;;;;10.33;100.00;101042.94;5032054;28;20514;-68
2021/05/20 05:20:16;;;;;;;3.60;3.25;;;;;;;10.31;100.00;101048.38;5033275;28;20044;-69
2021/05/20 05:22:59;;;;;;;3.75;3.00;;;;;;;10.35;100.00;101049.81;5032859;28;20048;-68
2021/05/20 05:25:47;;;;;;;4.00;2.85;;;;;;;10.43;100.00;101049.22;5033205;28;20107;-68
2021/05/20 05:28:31;;;;;;;4.43;2.78;;;;;;;10.46;100.00;101052.44;5032186;28;20048;-68
2021/05/20 05:31:20;;;;;;;3.47;2.58;;;;;;;10.52;100.00;101051.09;5032195;28;20048;-68
2021/05/20 05:34:04;;;;;;;4.47;3.03;;;;;;;10.59;100.00;101050.50;5018813;28;20041;-68
2021/05/20 05:36:48;;;;;;;6.88;3.20;;;;;;;10.58;100.00;101056.81;5018054;28;20436;-68
2021/05/20 05:39:32;;;;;;;5.95;3.40;;;;;;;10.62;100.00;101055.56;5033048;28;20056;-68
2021/05/20 05:42:16;;;;;;;;;;;;;;;10.52;100.00;101061.75;5032394;28;20103;-69
2021/05/20 05:45:00;;;;;;;4.77;3.20;;;;;;;10.64;100.00;101072.28;5031811;28;19919;-68
2021/05/20 05:47:44;;;;;;;14.95;4.53;;;;;;;10.63;100.00;101075.94;5034661;28;20635;-68
2021/05/20 05:50:28;;;;;;;4.50;2.97;;;;;;;10.67;100.00;101073.88;5035964;28;20096;-69
2021/05/20 05:53:12;;;;;;;4.38;2.97;;;;;;;10.63;100.00;101072.44;5035455;28;20040;-68
2021/05/20 05:55:57;;;;;;;6.38;3.60;;;;;;;10.69;100.00;101071.91;5036127;28;20096;-68
2021/05/20 05:58:41;;;;;;;4.85;3.63;;;;;;;10.83;100.00;101064.47;5035538;28;20414;-69
2021/05/20 06:01:25;;;;;;;6.25;2.95;;;;;;;11.01;100.00;101073.63;5035753;28;20052;-68
2021/05/20 06:04:09;;;;;;;4.70;3.10;;;;;;;11.06;100.00;101071.41;5035418;28;20048;-68
2021/05/20 06:06:53;;;;;;;4.03;3.10;;;;;;;11.14;100.00;101068.94;5035851;28;20099;-68
2021/05/20 06:09:37;;;;;;;3.83;2.85;;;;;;;11.17;100.00;101073.19;5035440;28;20128;-69
2021/05/20 06:12:21;;;;;;;5.80;3.30;;;;;;;11.20;100.00;101073.78;5021136;28;20083;-68
2021/05/20 06:15:06;;;;;;;7.65;3.25;;;;;;;11.32;100.00;101078.09;5021476;28;20134;-69
2021/05/20 06:17:49;;;;;;;4.28;3.33;;;;;;;11.44;100.00;101082.38;5035422;28;20060;-69
2021/05/20 06:20:33;;;;;;;3.65;3.08;;;;;;;11.68;99.84;101087.50;5035348;28;20099;-68
2021/05/20 06:23:17;;;;;;;3.40;3.10;;;;;;;11.60;97.85;101082.81;5035111;28;20048;-68
2021/05/20 06:26:01;;;;;;;6.18;3.60;;;;;;;11.77;97.27;101084.88;5036307;28;20491;-68
2021/05/20 06:28:45;;;;;;;4.22;3.60;;;;;;;11.77;96.72;101087.53;5036248;28;20052;-69
2021/05/20 06:31:29;;;;;;;5.35;3.30;;;;;;;11.71;97.15;101085.41;5035037;28;20417;-68
2021/05/20 06:34:13;;;;;;;5.13;3.33;;;;;;;11.65;96.79;101080.59;5034906;28;20037;-69
2021/05/20 06:36:59;;;;;;;4.90;3.30;;;;;;;11.64;97.23;101080.69;5035149;28;20107;-68
2021/05/20 06:39:43;;;;;;;4.72;3.45;;;;;;;11.53;97.88;101083.41;5035179;28;20564;-68
2021/05/20 06:42:27;;;;;;;4.40;3.70;;;;;;;11.59;97.94;101089.09;5034876;28;20048;-69
2021/05/20 06:45:11;;;;;;;4.65;3.00;;;;;;;11.70;97.19;101098.88;5034942;28;20544;-68
2021/05/20 06:47:55;;;;;;;3.72;2.90;;;;;;;12.00;98.04;101096.25;5035832;28;20212;-68
2021/05/20 06:50:39;;;;;;;4.07;3.25;;;;;;;12.22;93.55;101088.91;5034859;28;20133;-68
2021/05/20 06:53:24;;;;;;;8.50;3.42;;;;;;;12.47;91.82;101088.41;5034356;28;20045;-68
2021/05/20 06:56:16;;;;;;;6.53;3.20;;;;;;;12.72;88.42;101092.41;5034318;28;20560;-68
2021/05/20 07:02:03;;;;;;;3.30;2.67;;;;;;;13.03;85.03;101100.22;5035598;28;20555;-68
2021/05/20 07:04:47;;;;;;;3.60;2.60;;;;;;;13.04;80.70;101097.41;5034540;28;20052;-69
2021/05/20 07:07:31;;;;;;;6.85;3.45;;;;;;;12.91;81.97;101090.59;5035542;28;20129;-69
2021/05/20 07:10:16;;;;;;;4.22;3.22;;;;;;;13.06;82.10;101094.59;5034223;28;20099;-69
2021/05/20 07:13:00;;;;;;;6.82;3.17;;;;;;;13.25;78.80;101090.09;5034309;28;20045;-69
2021/05/20 07:15:44;;;;;;;4.35;3.35;;;;;;;13.45;79.08;101096.28;5020151;28;20055;-68
2021/05/20 07:18:28;;;;;;;6.05;3.35;;;;;;;13.50;77.38;101094.88;5034202;28;20134;-68
2021/05/20 07:21:12;;;;;;;5.32;3.35;;;;;;;13.81;77.53;101099.03;5020262;28;20052;-68
2021/05/20 07:23:55;;;;;;;3.08;2.78;;;;;;;13.45;76.96;101090.94;5034448;28;20091;-68
2021/05/20 07:26:39;;;;;;;4.22;3.13;;;;;;;13.57;75.64;101095.13;5020102;28;20075;-69
2021/05/20 07:29:24;;;;;;;3.55;3.03;;;;;;;13.72;74.74;101096.38;5033853;28;20067;-69
2021/05/20 07:32:09;;;;;;;2.70;2.45;;;;;;;13.94;76.08;101101.38;5019684;28;20044;-68
2021/05/20 07:34:54;;;;;;;3.95;2.50;;;;;;;13.61;78.42;101102.75;5033833;28;20056;-68
2021/05/20 07:37:38;;;;;;;3.25;2.80;;;;;;;13.52;78.93;101103.59;5033623;28;20099;-69
2021/05/20 07:40:22;;;;;;;4.50;2.72;;;;;;;13.68;79.13;101111.88;5019566;28;20133;-68
2021/05/20 07:43:06;;;;;;;3.22;2.55;;;;;;;13.51;76.81;101112.63;5034811;28;20048;-69
2021/05/20 07:45:51;;;;;;;4.20;2.70;;;;;;;13.58;77.49;101107.53;5033522;28;20134;-68
2021/05/20 07:48:36;;;;;;;3.70;2.78;;;;;;;13.85;77.66;101107.63;5033498;28;20052;-69
2021/05/20 07:51:20;;;;;;;5.32;3.13;;;;;;;14.20;75.64;101100.63;5033613;28;20083;-68
2021/05/20 07:54:04;;;;;;;4.45;3.28;;;;;;;14.16;75.15;101098.38;5033464;28;20044;-68
2021/05/20 07:56:48;;;;;;;3.55;2.58;;;;;;;14.23;75.96;101102.16;5033834;28;20571;-68
2021/05/20 07:59:32;;;;;;;5.55;2.95;;;;;;;14.32;75.54;101099.47;5033546;28;20399;-68
2021/05/20 08:02:27;;;;;;;3.10;2.80;;;;;;;14.42;75.60;101111.00;5033302;28;20417;-69
2021/05/20 08:05:21;;;;;;;3.60;2.40;;;;;;;13.96;72.93;101099.44;5033512;28;20126;-69
2021/05/20 08:08:17;;;;;;;2.45;2.13;;;;;;;14.02;77.43;101102.38;5033185;28;20041;-69
2021/05/20 08:11:04;;;;;;;3.00;2.42;;;;;;;14.19;74.23;101100.78;5033801;28;20529;-69
2021/05/20 08:13:48;;;;;;;2.03;1.83;;;;;;;14.43;69.67;101112.69;5019217;28;20099;-68
2021/05/20 08:16:32;;;;;;;2.42;1.80;;;;;;;14.39;69.26;101111.25;5033177;28;20053;-69
2021/05/20 08:19:16;;;;;;;3.13;2.20;;;;;;;14.08;72.20;101111.66;5033169;28;20049;-69
2021/05/20 08:22:00;;;;;;;2.13;1.80;;;;;;;14.18;71.92;101110.66;5034195;28;20129;-69
2021/05/20 08:24:44;;;;;;;4.03;2.38;;;;;;;14.42;70.62;101102.09;5032837;28;20095;-68
2021/05/20 08:27:28;;;;;;;2.33;1.98;;;;;;;14.75;71.26;101101.47;5032822;28;20048;-69
2021/05/20 08:30:13;;;;;;;3.90;2.05;;;;;;;14.76;68.61;101108.53;5033205;28;20429;-69
2021/05/20 08:32:57;;;;;;;2.03;1.73;;;;;;;15.13;68.97;101099.38;5032667;28;20051;-69
2021/05/20 08:35:41;;;;;;;2.45;1.65;;;;;;;15.15;65.62;101105.44;5018732;28;20107;-68
2021/05/20 08:38:25;;;;;;;2.40;1.73;;;;;;;15.40;65.09;101093.09;5018917;28;20158;-68
2021/05/20 08:41:09;;;;;;;1.70;1.60;;;;;;;15.17;64.03;101097.22;5018824;28;20052;-68
2021/05/20 08:43:53;;;;;;;2.75;2.05;;;;;;;15.43;64.23;101092.78;5032455;28;20556;-68
2021/05/20 08:46:37;;;;;;;1.95;1.73;;;;;;;15.82;63.49;101090.41;5032768;28;20103;-68
2021/05/20 08:49:21;;;;;;;4.50;1.77;;;;;;;15.78;62.33;101083.63;5033657;28;20056;-69
2021/05/20 08:52:05;;;;;;;5.00;1.63;;;;;;;15.49;63.31;101081.44;5032502;28;20049;-68
2021/05/20 08:54:49;;;;;;;2.08;1.88;;;;;;;15.06;65.88;101094.75;5041815;22;20096;-68
2021/05/20 08:57:33;;;;;;;2.28;2.08;;;;;;;14.99;67.05;101093.69;5032538;28;20122;-68
2021/05/20 09:00:20;;;;;;;2.40;1.98;;;;;;;15.10;67.65;101078.19;5032270;28;20056;-68
2021/05/20 09:03:08;;;;;;;2.08;1.70;;;;;;;14.95;66.18;101082.41;5032085;28;20415;-68
2021/05/20 09:05:57;;;;;;;8.18;1.85;;;;;;;15.02;66.10;101088.84;5033344;28;20056;-67
2021/05/20 09:08:41;;;;;;;1.73;1.42;;;;;;;15.21;64.90;101082.50;5032378;28;20052;-66
2021/05/20 09:11:25;;;;;;;6.30;1.88;;;;;;;15.55;65.61;101091.53;5018420;28;20056;-68
2021/05/20 09:14:09;;;;;;;3.03;2.17;;;;;;;15.17;64.21;101076.56;5031980;28;20060;-68
2021/05/20 09:17:18;;;;;;;2.28;1.50;;;;;;;15.14;63.96;101086.78;5032308;28;20057;-68
2021/05/20 09:20:03;;;;;;;1.42;1.27;;;;;;;15.10;64.07;101085.41;5032648;28;20048;-68
2021/05/20 09:22:49;;;;;;;1.40;1.30;;;;;;;15.35;65.41;101084.66;5021470;28;20094;-68
2021/05/20 09:25:35;;;;;;;1.52;1.42;;;;;;;15.38;64.21;101089.72;5036344;28;20088;-68
2021/05/20 09:28:40;;;;;;;3.38;1.40;;;;;;;15.59;64.35;101080.31;5036278;28;20052;-68
2021/05/20 09:31:39;;;;;;;1.60;1.38;;;;;;;15.45;64.44;101088.09;5037597;28;20449;-68
2021/05/20 09:34:23;;;;;;;1.67;1.40;;;;;;;15.20;62.22;101080.81;5036178;28;20041;-68
2021/05/20 09:37:08;;;;;;;1.30;1.20;;;;;;;15.11;63.29;101081.72;5037110;28;20047;-68
2021/05/20 09:40:00;;;;;;;1.70;1.23;;;;;;;15.43;66.07;101082.03;5035958;28;20076;-68
2021/05/20 09:42:46;;;;;;;2.50;1.80;;;;;;;15.31;66.82;101077.91;5022020;28;20413;-68
2021/05/20 09:45:34;;;;;;;3.13;1.50;;;;;;;15.20;66.92;101088.88;5036281;28;20079;-69
2021/05/20 09:48:20;;;;;;;1.73;1.63;;;;;;;15.45;67.74;101080.03;5037169;28;20167;-68
2021/05/20 09:51:06;;;;;;;4.18;1.98;;;;;;;15.37;67.80;101071.91;5035905;28;20057;-68
2021/05/20 09:53:53;;;;;;;2.15;1.60;;;;;;;15.37;68.91;101077.28;5035449;28;20091;-68
2021/05/20 09:56:42;;;;;;;2.50;1.40;;;;;;;15.36;66.23;101080.97;5037128;28;20134;-68
2021/05/20 09:59:30;;;;;;;1.40;1.10;;;;;;;14.94;65.00;101087.94;5035447;28;20130;-68
2021/05/20 10:02:17;;;;;;;1.60;1.50;;;;;;;14.89;65.49;101082.19;5036455;28;20087;-68
2021/05/20 10:05:17;;;;;;;1.33;1.23;;;;;;;14.99;62.37;101088.31;5036458;28;20517;-68
2021/05/20 10:08:07;;;;;;;1.42;1.20;;;;;;;15.05;62.47;101082.31;5021652;28;20048;-68
2021/05/20 10:10:56;;;;;;;2.25;1.58;;;;;;;15.31;62.61;101077.91;5035432;28;20509;-68
2021/05/20 10:13:40;;;;;;;3.67;1.42;;;;;;;15.41;62.84;101084.03;5035093;28;20072;-68
2021/05/20 10:16:27;;;;;;;2.00;1.70;;;;;;;15.26;63.28;101085.53;5021791;28;20489;-68
2021/05/20 10:19:12;;;;;;;3.85;1.77;;;;;;;15.10;64.14;101088.91;5035427;28;20465;-68
2021/05/20 10:21:55;;;;;;;1.83;1.73;;;;;;;15.42;63.98;101072.28;5021414;28;20048;-68
2021/05/20 10:24:41;;;;;;;3.35;2.00;;;;;;;15.82;62.63;101068.03;5035296;28;20053;-68
2021/05/20 10:27:25;;;;;;;1.45;1.35;;;;;;;16.09;60.58;101066.00;5035272;28;20094;-68
2021/05/20 10:30:12;;;;;;;1.35;1.25;;;;;;;17.05;60.44;101050.22;5035181;28;20048;-68
2021/05/20 10:32:57;;;;;;;1.70;1.60;;;;;;;18.11;57.38;101042.69;5034785;28;20075;-68
2021/05/20 10:35:49;;;;;;;5.25;1.90;;;;;;;17.90;57.86;101047.00;5035050;28;20063;-68
2021/05/20 10:38:33;;;;;;;2.80;1.90;;;;;;;18.61;55.19;101049.44;5035074;28;20067;-68
2021/05/20 10:41:20;;;;;;;1.88;1.65;;;;;;;18.65;54.27;101036.41;5035617;28;20123;-68
2021/05/20 10:44:04;;;;;;;3.13;1.88;;;;;;;18.64;51.70;101054.50;5034852;28;20063;-69
2021/05/20 10:46:57;;;;;;;1.65;1.30;;;;;;;17.79;55.43;101050.06;5035677;28;20049;-68
2021/05/20 10:49:51;;;;;;;2.45;1.48;;;;;;;17.45;57.15;101042.19;5035781;28;20099;-67
2021/05/20 10:52:37;;;;;;;2.33;1.20;;;;;;;16.53;59.46;101054.16;5034368;28;20052;-68
2021/05/20 10:55:36;;;;;;;7.53;1.88;;;;;;;16.42;61.26;101051.75;5035176;28;20133;-68
2021/05/20 10:58:29;;;;;;;2.00;1.55;;;;;;;16.69;60.54;101059.56;5035367;28;20053;-68
2021/05/20 11:01:25;;;;;;;1.35;1.25;;;;;;;16.49;59.45;101042.00;5034248;28;20091;-68
2021/05/20 11:04:09;;;;;;;1.13;1.02;;;;;;;15.92;60.31;101048.13;5035095;28;20564;-68
2021/05/20 11:06:57;;;;;;;2.60;1.27;;;;;;;16.00;59.94;101053.56;5020274;28;20079;-68
2021/05/20 11:09:48;;;;;;;1.27;1.17;;;;;;;16.04;58.91;101041.47;5034340;28;20406;-68
2021/05/20 11:12:55;;;;;;;3.85;1.20;;;;;;;16.34;58.52;101038.22;5034236;28;20044;-68
2021/05/20 11:15:41;;;;;;;2.88;2.05;;;;;;;16.44;57.84;101038.97;5034110;28;20059;-69
2021/05/20 11:18:33;;;;;;;1.75;1.40;;;;;;;16.74;58.29;101040.22;5034486;28;20068;-68
2021/05/20 11:21:17;;;;;;;1.30;1.20;;;;;;;16.80;57.70;101032.31;5020045;28;20517;-68
2021/05/20 11:24:19;;;;;;;1.65;1.25;;;;;;;17.36;56.47;101027.00;5034982;28;20040;-68
2021/05/20 11:27:19;;;;;;;1.50;1.40;;;;;;;18.63;51.04;101019.53;5033801;28;20111;-68
2021/05/20 11:30:04;;;;;;;3.97;1.20;;;;;;;20.79;47.51;101001.09;5020322;28;20407;-68
2021/05/20 11:32:53;;;;;;;1.40;1.30;;;;;;;22.02;43.54;100994.88;5033831;28;20091;-68
2021/05/20 11:35:54;;;;;;;1.63;1.50;;;;;;;21.43;44.02;100998.19;5020375;28;20064;-68
2021/05/20 11:38:50;;;;;;;1.65;1.40;;;;;;;20.46;45.48;101005.31;5034853;28;20040;-67
2021/05/20 11:41:35;;;;;;;1.30;1.20;;;;;;;20.03;47.45;101027.81;5019854;28;20044;-68
2021/05/20 11:44:25;;;;;;;2.15;1.75;;;;;;;17.96;52.22;101013.91;5033008;28;20087;-68
2021/05/20 11:47:12;;;;;;;1.63;1.50;;;;;;;17.84;53.05;101008.06;5033799;28;20505;-68
2021/05/20 11:49:56;;;;;;;4.30;1.30;;;;;;;18.12;53.30;100997.69;5033705;28;20056;-67
2021/05/20 11:52:39;;;;;;;3.70;1.70;;;;;;;18.36;53.09;101001.16;5033830;28;20040;-68
2021/05/20 11:55:24;;;;;;;1.27;1.17;;;;;;;19.09;51.39;100999.66;5019397;28;20083;-68
2021/05/20 11:58:08;;;;;;;1.38;1.23;;;;;;;18.95;51.40;101003.97;5034422;28;20067;-68
2021/05/20 12:01:02;;;;;;;2.30;1.73;;;;;;;19.79;51.01;100999.16;5019315;28;20092;-68
2021/05/20 12:03:59;;;;;;;2.35;2.10;;;;;;;19.33;54.69;100994.06;5033706;28;20148;-68
2021/05/20 12:06:48;;;;;;;4.07;2.83;;;;;;;18.61;55.33;100989.19;5033408;28;20092;-68
2021/05/20 12:09:33;;;;;;;5.07;2.90;;;;;;;18.93;54.83;100991.66;5034084;28;20179;-68
2021/05/20 12:12:19;;;;;;;3.80;3.05;;;;;;;19.05;53.38;100985.66;5033219;28;20048;-68
2021/05/20 12:15:11;;;;;;;3.13;2.70;;;;;;;20.04;52.59;100970.84;5033354;28;20152;-68
2021/05/20 12:17:59;;;;;;;3.88;2.58;;;;;;;21.10;47.92;100974.53;5032938;28;20132;-68
2021/05/20 12:20:45;;;;;;;2.63;2.38;;;;;;;21.42;45.50;100975.69;5033159;28;20060;-69
2021/05/20 12:23:29;;;;;;;3.80;2.63;;;;;;;22.05;44.87;100977.34;5033018;28;20052;-68
2021/05/20 12:26:27;;;;;;;3.25;2.45;;;;;;;21.06;48.79;100974.13;5019086;28;20095;-68
2021/05/20 12:29:11;;;;;;;2.30;2.10;;;;;;;21.39;45.04;100967.91;5033255;28;20410;-68
2021/05/20 12:31:55;;;;;;;3.35;2.60;;;;;;;22.22;44.07;100963.22;5032876;28;20088;-68
2021/05/20 12:34:39;;;;;;;2.40;2.15;;;;;;;22.18;43.61;100961.97;5033568;28;20052;-68
2021/05/20 12:37:23;;;;;;;4.70;3.03;;;;;;;21.45;44.95;100964.44;5034186;28;20059;-68
2021/05/20 12:40:19;;;;;;;2.83;2.55;;;;;;;21.02;46.77;100963.84;5018609;28;20564;-68
2021/05/20 12:43:03;;;;;;;4.40;2.55;;;;;;;20.35;49.84;100962.47;5032419;28;20045;-68
2021/05/20 12:45:50;;;;;;;2.67;2.45;;;;;;;20.42;48.78;100968.81;5033454;28;20052;-67
2021/05/20 12:48:42;;;;;;;3.10;2.80;;;;;;;19.48;51.13;100965.19;5032991;28;20055;-68
2021/05/20 12:51:27;;;;;;;3.17;2.30;;;;;;;20.33;49.45;100956.41;5032800;28;20120;-67
2021/05/20 12:54:12;;;;;;;2.97;2.40;;;;;;;21.40;47.32;100950.59;5032116;28;20457;-67
2021/05/20 12:57:05;;;;;;;3.53;2.45;;;;;;;21.71;45.65;100952.94;5031678;28;20064;-68